KDRT/DRT METAR and TAF weather

Enter ICAO airport designator
Station Type Date Time Source
KDRT METAR 2018/04/23 10:53 UTC NOAA

KDRT 231053Z AUTO 11009KT 10SM CLR 18/10 A3006 RMK AO2 SLP165 T01780100 $


Station Type Date Time Source
KDRT Decoded METAR 2018/04/23 10:53 UTC NOAA

DEL RIO INTERNATIONAL AIRPORT, TX, United States (KDRT) 29-22N 100-55W 313M
Apr 23, 2018 - 06:53 AM EDT / 2018.04.23 1053 UTC
Wind: from the ESE (110 degrees) at 10 MPH (9 KT):0
Visibility: 10 mile(s):0
Sky conditions: clear
Temperature: 64.0 F (17.8 C)
Dew Point: 50.0 F (10.0 C)
Relative Humidity: 60%
Pressure (altimeter): 30.06 in. Hg (1017 hPa)
ob: KDRT 231053Z AUTO 11009KT 10SM CLR 18/10 A3006 RMK AO2 SLP165 T01780100
cycle: 11

Station Type Date Time Source
KDRT TAF 2018/04/23 12:27 UTC NOAA

TAF KDRT 231124Z 2312/2412 09005KT P6SM SCT150
FM231500 14010KT P6SM SCT250
FM240900 11010KT P6SM SCT250


Example: see airport list